Time;durP1;ratioP1;P1;durP2;ratioP2;P2;SDS_P1;SDS_P2;PMS_P1;PMS_P2;Temp;Humidity;BMP_temperature;BMP_pressure;BME280_temperature;BME280_humidity;BME280_pressure;Samples;Min_cycle;Max_cycle;Signal;HPM_P1;HPM_P2
2023/04/15 05:49:26;;;;;;;2.27;1.60;;;2.60;99.90;;;;;;5132957;27;20282;-77
2023/04/15 05:57:02;;;;;;;4.27;1.67;;;2.80;99.90;;;;;;5133877;27;20270;-78
2023/04/15 06:02:10;;;;;;;2.13;1.63;;;3.00;99.90;;;;;;5133012;27;20273;-78
2023/04/15 06:06:36;;;;;;;2.27;1.80;;;3.20;99.90;;;;;;5133078;27;20283;-78
2023/04/15 06:11:22;;;;;;;2.27;1.73;;;3.50;99.90;;;;;;5132887;27;20632;-78
2023/04/15 06:15:09;;;;;;;4.47;2.00;;;3.50;99.90;;;;;;5136653;27;20287;-78
2023/04/15 06:19:02;;;;;;;3.97;2.30;;;3.90;99.90;;;;;;5133510;27;20753;-78
2023/04/15 06:22:59;;;;;;;3.40;2.10;;;3.70;99.90;;;;;;5133508;27;20267;-78
2023/04/15 06:26:53;;;;;;;3.87;1.87;;;3.90;99.90;;;;;;5133903;27;20741;-78
2023/04/15 06:30:53;;;;;;;2.47;1.77;;;3.70;99.90;;;;;;5132962;27;20640;-77
2023/04/15 06:34:51;;;;;;;7.63;1.90;;;4.00;99.90;;;;;;5133776;27;20290;-79
2023/04/15 06:38:52;;;;;;;2.10;1.87;;;4.40;99.90;;;;;;5133324;27;20269;-78
2023/04/15 06:42:54;;;;;;;5.53;2.23;;;4.40;99.90;;;;;;5133876;27;20274;-81
2023/04/15 06:46:55;;;;;;;2.33;1.77;;;4.40;99.90;;;;;;5134062;27;20274;-78
2023/04/15 06:50:55;;;;;;;6.27;2.20;;;4.50;99.90;;;;;;5112952;27;20557;-78
2023/04/15 06:54:49;;;;;;;4.63;2.03;;;4.80;99.90;;;;;;5133791;27;20286;-78
2023/04/15 06:57:15;;;;;;;2.43;2.00;;;5.20;99.90;;;;;;5136723;27;20252;-78
2023/04/15 06:59:41;;;;;;;3.30;2.10;;;5.40;99.90;;;;;;5138323;27;20173;-78
2023/04/15 07:02:09;;;;;;;2.47;1.60;;;5.50;99.90;;;;;;5137591;28;20172;-78
2023/04/15 07:04:35;;;;;;;5.23;1.90;;;5.70;99.90;;;;;;5134790;28;20248;-78
2023/04/15 07:07:01;;;;;;;2.40;2.00;;;5.90;99.90;;;;;;5133592;28;20171;-78
2023/04/15 07:09:27;;;;;;;3.77;2.33;;;6.10;99.90;;;;;;5134101;28;20178;-78
2023/04/15 07:11:52;;;;;;;4.07;2.10;;;6.20;99.90;;;;;;5135173;27;20170;-79
2023/04/15 07:14:18;;;;;;;2.63;1.50;;;6.40;99.90;;;;;;5134634;27;20282;-78
2023/04/15 07:16:44;;;;;;;3.87;1.67;;;6.40;99.90;;;;;;5133162;28;20534;-78
2023/04/15 07:19:09;;;;;;;2.80;1.40;;;6.40;99.90;;;;;;5134729;27;20176;-79
2023/04/15 07:21:35;;;;;;;2.97;1.53;;;6.50;99.90;;;;;;5133223;28;20177;-79
2023/04/15 07:24:01;;;;;;;3.80;2.10;;;6.80;99.90;;;;;;5134814;27;20203;-79
2023/04/15 07:26:26;;;;;;;3.60;1.87;;;7.20;99.90;;;;;;5135623;27;20176;-79
2023/04/15 07:28:52;;;;;;;2.60;1.70;;;7.40;99.90;;;;;;5136229;28;20270;-79
2023/04/15 07:31:18;;;;;;;4.07;1.70;;;7.80;99.90;;;;;;5135921;28;20221;-79
2023/04/15 07:33:44;;;;;;;4.23;2.33;;;7.80;99.90;;;;;;5135823;28;20632;-79
2023/04/15 07:36:09;;;;;;;2.40;1.40;;;7.80;99.90;;;;;;5135485;28;20183;-79
2023/04/15 07:38:35;;;;;;;3.10;1.60;;;8.00;99.90;;;;;;5135012;28;20643;-78
2023/04/15 07:41:01;;;;;;;2.53;1.50;;;8.80;99.90;;;;;;5136372;28;20596;-78
2023/04/15 07:43:27;;;;;;;3.10;1.23;;;9.50;99.90;;;;;;5137431;27;20713;-79
2023/04/15 07:45:52;;;;;;;2.33;1.17;;;9.50;99.90;;;;;;5137682;27;20559;-79
2023/04/15 07:48:18;;;;;;;2.80;1.00;;;9.60;99.90;;;;;;5136957;27;20174;-79
2023/04/15 07:50:44;;;;;;;5.10;1.63;;;9.80;99.90;;;;;;5137505;27;20626;-79
2023/04/15 07:53:09;;;;;;;2.50;1.10;;;9.40;99.90;;;;;;5134828;28;20240;-79
2023/04/15 07:55:35;;;;;;;4.83;1.57;;;9.40;99.90;;;;;;5137464;27;20174;-79
2023/04/15 07:58:01;;;;;;;2.17;1.17;;;9.40;99.90;;;;;;5136219;28;20193;-79
2023/04/15 08:00:27;;;;;;;1.73;0.90;;;9.90;99.90;;;;;;5136388;28;20171;-79
2023/04/15 08:02:52;;;;;;;2.23;1.20;;;10.30;99.90;;;;;;5136928;28;20171;-79
2023/04/15 08:05:19;;;;;;;2.73;1.30;;;10.60;99.90;;;;;;5129748;27;20206;-79
2023/04/15 08:07:45;;;;;;;3.03;1.40;;;10.80;99.90;;;;;;5124910;28;20176;-79
2023/04/15 08:10:11;;;;;;;1.33;0.97;;;10.60;97.50;;;;;;5124882;27;20544;-79
2023/04/15 08:12:37;;;;;;;4.17;1.70;;;10.40;98.30;;;;;;5125684;28;20179;-79
2023/04/15 08:15:03;;;;;;;11.23;3.20;;;10.50;98.40;;;;;;5124614;28;20194;-79
2023/04/15 08:17:29;;;;;;;3.60;1.80;;;10.50;99.90;;;;;;5123562;28;20164;-79
2023/04/15 08:19:55;;;;;;;4.57;1.60;;;10.50;98.00;;;;;;5122686;28;20200;-79
2023/04/15 08:22:21;;;;;;;3.43;1.60;;;10.00;97.10;;;;;;5124159;28;20250;-79
2023/04/15 08:24:47;;;;;;;5.87;1.70;;;9.90;98.70;;;;;;5122608;28;20282;-79
2023/04/15 08:27:12;;;;;;;3.40;1.73;;;10.30;98.70;;;;;;5123622;28;20194;-79
2023/04/15 08:29:39;;;;;;;2.13;1.60;;;11.00;96.90;;;;;;5121457;28;20171;-79
2023/04/15 08:32:05;;;;;;;5.17;1.80;;;11.40;96.10;;;;;;5122016;28;20171;-79
2023/04/15 08:34:31;;;;;;;4.83;1.57;;;11.60;94.70;;;;;;5122173;28;20692;-80
2023/04/15 08:36:56;;;;;;;4.80;1.87;;;12.00;94.70;;;;;;5122043;28;20172;-79
2023/04/15 08:39:22;;;;;;;3.60;1.40;;;12.30;94.20;;;;;;5123721;28;20254;-79
2023/04/15 08:42:05;;;;;;;2.67;1.23;;;12.50;93.40;;;;;;5121930;28;20175;-79
2023/04/15 08:44:35;;;;;;;2.33;1.70;;;12.30;93.60;;;;;;5121390;28;20733;-80
2023/04/15 08:47:01;;;;;;;3.67;1.80;;;12.10;93.40;;;;;;5121140;28;20259;-79
2023/04/15 08:49:28;;;;;;;3.33;1.70;;;12.20;92.20;;;;;;5121870;28;20266;-79
2023/04/15 08:51:57;;;;;;;1.83;1.20;;;12.20;92.70;;;;;;5122036;28;20167;-79
2023/04/15 08:54:22;;;;;;;2.83;1.63;;;12.40;91.80;;;;;;5122495;28;20231;-79
2023/04/15 08:56:49;;;;;;;3.67;1.43;;;12.40;91.50;;;;;;5121370;28;20224;-78
2023/04/15 08:59:15;;;;;;;2.83;1.50;;;12.80;93.80;;;;;;5125462;28;20247;-79
2023/04/15 09:01:41;;;;;;;3.33;1.40;;;13.10;92.60;;;;;;5128493;28;20232;-79
2023/04/15 09:04:07;;;;;;;4.10;1.50;;;12.80;91.00;;;;;;5127718;28;20547;-79
2023/04/15 09:06:33;;;;;;;4.40;1.73;;;12.20;92.80;;;;;;5121575;28;20615;-79
2023/04/15 09:08:59;;;;;;;2.47;1.73;;;11.60;92.00;;;;;;5121785;28;20172;-80
2023/04/15 09:11:24;;;;;;;2.77;1.53;;;11.30;91.80;;;;;;5119862;28;20658;-79
2023/04/15 09:13:51;;;;;;;3.47;1.67;;;11.00;92.20;;;;;;5121221;28;20720;-79
2023/04/15 09:16:19;;;;;;;2.43;1.53;;;10.80;93.60;;;;;;5120523;28;20662;-79
2023/04/15 09:18:45;;;;;;;3.17;1.30;;;10.60;95.10;;;;;;5120038;28;20168;-79
2023/04/15 09:21:15;;;;;;;5.10;2.00;;;10.60;94.20;;;;;;5120944;28;20190;-79
2023/04/15 09:23:56;;;;;;;2.77;1.50;;;10.60;96.20;;;;;;5120420;28;20620;-80
2023/04/15 09:26:33;;;;;;;3.33;1.60;;;10.70;94.70;;;;;;5120183;28;20187;-79
2023/04/15 09:29:12;;;;;;;2.43;1.40;;;10.50;93.60;;;;;;5121812;28;20636;-79
2023/04/15 09:31:39;;;;;;;2.23;1.43;;;10.60;96.20;;;;;;5120986;28;20195;-79
2023/04/15 09:34:05;;;;;;;3.83;1.60;;;10.80;96.00;;;;;;5119205;28;20565;-79
2023/04/15 09:36:52;;;;;;;3.40;1.30;;;11.00;99.00;;;;;;5118381;28;20175;-79
2023/04/15 09:39:18;;;;;;;3.13;1.53;;;11.20;95.70;;;;;;5119492;28;20166;-78
2023/04/15 09:41:44;;;;;;;4.30;1.97;;;11.30;95.10;;;;;;5119047;28;20163;-79
2023/04/15 09:44:26;;;;;;;4.10;1.93;;;11.40;94.50;;;;;;5117525;28;20222;-79
2023/04/15 09:46:51;;;;;;;4.60;1.90;;;11.40;94.10;;;;;;5117004;28;20675;-79
2023/04/15 09:49:18;;;;;;;2.63;1.60;;;11.70;96.70;;;;;;5117797;28;20175;-78
2023/04/15 09:51:43;;;;;;;4.60;1.90;;;11.70;92.80;;;;;;5117416;28;20167;-79
2023/04/15 09:54:09;;;;;;;2.03;1.33;;;11.70;94.70;;;;;;5115562;28;20569;-79
2023/04/15 09:56:37;;;;;;;2.50;1.60;;;11.90;95.50;;;;;;5115001;28;20204;-79
2023/04/15 09:59:04;;;;;;;3.33;1.50;;;12.00;93.60;;;;;;5114642;28;20172;-79
2023/04/15 10:01:30;;;;;;;2.70;1.40;;;12.00;93.40;;;;;;5116821;28;20649;-79
2023/04/15 10:03:57;;;;;;;2.63;1.30;;;12.00;94.60;;;;;;5118987;28;20259;-79
2023/04/15 10:06:28;;;;;;;2.10;1.13;;;12.10;93.40;;;;;;5119949;28;20171;-79
2023/04/15 10:08:55;;;;;;;2.67;1.50;;;12.10;93.70;;;;;;5119043;28;20187;-79
2023/04/15 10:11:23;;;;;;;3.47;1.70;;;12.10;92.60;;;;;;5119938;28;20218;-79
2023/04/15 10:13:50;;;;;;;1.60;1.30;;;12.00;94.00;;;;;;5120554;28;20249;-79
2023/04/15 10:16:19;;;;;;;5.30;1.73;;;11.90;93.10;;;;;;5121268;28;20194;-79
2023/04/15 10:18:47;;;;;;;2.53;1.40;;;11.90;94.20;;;;;;5119242;28;20182;-79
2023/04/15 10:21:17;;;;;;;3.40;1.60;;;11.90;92.50;;;;;;5118803;28;20197;-79
2023/04/15 10:23:44;;;;;;;4.20;1.80;;;11.90;90.00;;;;;;5120339;28;20191;-79
2023/04/15 10:26:11;;;;;;;4.13;2.13;;;12.00;92.00;;;;;;5119720;28;20173;-79
2023/04/15 10:28:37;;;;;;;6.70;1.87;;;12.10;91.40;;;;;;5120846;28;20560;-79
2023/04/15 10:31:04;;;;;;;4.83;1.50;;;11.80;93.80;;;;;;5118949;28;20172;-79
2023/04/15 10:33:31;;;;;;;2.90;1.70;;;11.80;93.40;;;;;;5118484;28;20215;-81
2023/04/15 10:35:57;;;;;;;4.13;1.20;;;12.00;93.10;;;;;;5119735;28;20176;-79
2023/04/15 10:38:35;;;;;;;3.77;1.40;;;12.10;91.40;;;;;;5119854;28;20177;-79
2023/04/15 10:41:15;;;;;;;3.80;1.70;;;12.00;85.60;;;;;;5120017;28;20171;-79
2023/04/15 10:43:55;;;;;;;2.97;1.37;;;12.00;87.50;;;;;;5118082;28;20673;-78
2023/04/15 10:46:38;;;;;;;3.60;1.33;;;12.00;86.60;;;;;;5119594;28;20167;-79
2023/04/15 10:49:14;;;;;;;5.83;1.77;;;12.00;82.20;;;;;;5120011;28;20175;-79
2023/04/15 10:51:42;;;;;;;3.70;1.30;;;11.70;84.00;;;;;;5120091;28;20172;-79
2023/04/15 10:54:31;;;;;;;1.70;1.27;;;11.90;89.40;;;;;;5120454;28;20733;-79
2023/04/15 10:57:00;;;;;;;3.83;1.50;;;12.20;91.10;;;;;;5121317;28;20180;-79
2023/04/15 10:59:32;;;;;;;3.77;1.30;;;12.50;88.90;;;;;;5122613;28;20172;-79
2023/04/15 11:02:03;;;;;;;4.43;1.40;;;12.60;88.40;;;;;;5120118;28;20169;-79
2023/04/15 11:04:50;;;;;;;1.80;1.20;;;12.60;87.50;;;;;;5119537;28;20188;-79
2023/04/15 11:07:40;;;;;;;3.27;1.33;;;12.80;89.70;;;;;;5118096;28;20258;-79
2023/04/15 11:10:24;;;;;;;2.77;1.40;;;13.10;90.30;;;;;;5119393;28;20520;-79
2023/04/15 11:13:00;;;;;;;6.00;1.50;;;13.40;88.20;;;;;;5119015;28;20254;-79
2023/04/15 11:15:26;;;;;;;2.30;1.60;;;14.10;91.50;;;;;;5118187;28;20198;-79
2023/04/15 11:17:52;;;;;;;4.93;2.40;;;14.90;86.80;;;;;;5117649;28;20203;-78
2023/04/15 11:20:18;;;;;;;3.50;2.30;;;14.40;80.20;;;;;;5119558;28;20190;-79
2023/04/15 11:22:51;;;;;;;3.10;2.07;;;13.60;83.70;;;;;;5119464;28;20168;-79
2023/04/15 11:25:23;;;;;;;2.97;1.60;;;13.30;88.30;;;;;;5117527;28;20190;-79
2023/04/15 11:27:49;;;;;;;2.10;1.30;;;12.80;86.90;;;;;;5119513;28;20172;-79
2023/04/15 11:30:23;;;;;;;4.53;1.50;;;12.60;84.30;;;;;;5118121;28;20172;-79
2023/04/15 11:32:51;;;;;;;4.43;1.83;;;12.20;88.80;;;;;;5119329;28;20199;-79
2023/04/15 11:35:17;;;;;;;3.53;2.10;;;12.20;86.40;;;;;;5119309;28;20188;-79
2023/04/15 11:37:48;;;;;;;2.90;1.60;;;12.40;88.50;;;;;;5116691;28;20259;-79
2023/04/15 11:40:16;;;;;;;5.00;1.67;;;13.00;90.60;;;;;;5118587;28;20183;-78
2023/04/15 11:42:43;;;;;;;3.87;1.70;;;13.30;89.30;;;;;;5122910;28;20163;-79
2023/04/15 11:45:10;;;;;;;2.50;1.10;;;13.60;85.00;;;;;;5121293;28;20208;-79
2023/04/15 11:47:36;;;;;;;4.13;2.00;;;14.20;88.90;;;;;;5122125;28;20177;-79
2023/04/15 11:50:17;;;;;;;6.20;1.70;;;14.80;89.50;;;;;;5122304;28;20193;-79
2023/04/15 11:52:53;;;;;;;3.33;1.67;;;14.70;84.50;;;;;;5120458;28;20188;-78
2023/04/15 11:55:18;;;;;;;2.57;1.43;;;14.30;80.10;;;;;;5118276;28;20194;-78
2023/04/15 11:57:45;;;;;;;4.27;1.93;;;13.70;81.20;;;;;;5120221;28;20176;-78
2023/04/15 12:00:11;;;;;;;5.10;2.23;;;13.30;81.80;;;;;;5120768;28;20171;-78
2023/04/15 12:02:38;;;;;;;2.67;1.60;;;13.00;82.70;;;;;;5118908;28;20172;-78
2023/04/15 12:05:05;;;;;;;6.90;1.70;;;12.70;85.00;;;;;;5117819;28;20767;-78
2023/04/15 12:07:31;;;;;;;5.17;2.00;;;12.40;85.00;;;;;;5117453;28;20630;-78
2023/04/15 12:09:57;;;;;;;3.13;1.87;;;11.90;83.60;;;;;;5115855;28;20306;-78
2023/04/15 12:12:29;;;;;;;2.53;2.13;;;11.30;92.20;;;;;;5117248;28;20675;-78
2023/04/15 12:14:58;;;;;;;3.67;2.50;;;10.30;99.90;;;;;;5115876;28;20195;-78
2023/04/15 12:17:26;;;;;;;5.20;2.77;;;9.50;99.90;;;;;;5116446;28;20187;-79
2023/04/15 12:19:55;;;;;;;4.93;2.50;;;9.10;99.90;;;;;;5116603;28;20307;-77
2023/04/15 12:22:21;;;;;;;4.90;3.00;;;8.60;99.90;;;;;;5116988;28;20538;-77
2023/04/15 12:24:56;;;;;;;3.80;2.60;;;8.30;99.90;;;;;;5115505;28;20227;-77
2023/04/15 12:27:26;;;;;;;4.57;2.20;;;8.10;99.90;;;;;;5115690;28;20182;-78
2023/04/15 12:30:06;;;;;;;5.90;2.80;;;8.00;99.90;;;;;;5115482;28;20179;-77
2023/04/15 12:32:34;;;;;;;2.50;2.23;;;7.90;99.90;;;;;;5115499;28;20261;-77
2023/04/15 12:35:00;;;;;;;4.40;2.80;;;7.90;99.90;;;;;;5119350;28;20184;-78
2023/04/15 12:37:26;;;;;;;4.23;2.30;;;8.00;99.90;;;;;;5117803;28;20528;-78
2023/04/15 12:46:32;;;;;;;3.67;2.77;;;8.00;99.90;;;;;;5113356;27;20294;-77
2023/04/15 12:51:50;;;;;;;3.93;2.53;;;8.10;99.90;;;;;;5132441;27;20284;-77
2023/04/15 12:56:31;;;;;;;4.17;3.00;;;8.10;99.90;;;;;;5133011;27;20629;-78
2023/04/15 13:00:48;;;;;;;5.10;2.97;;;8.30;99.90;;;;;;5133525;27;20274;-78
2023/04/15 13:04:09;;;;;;;4.57;2.70;;;8.50;99.90;;;;;;5133239;27;20309;-78
2023/04/15 13:09:20;;;;;;;4.63;3.30;;;8.60;99.90;;;;;;5133081;27;20642;-77
2023/04/15 13:15:40;;;;;;;7.83;2.73;;;8.50;99.90;;;;;;5133475;27;20640;-77
2023/04/15 13:24:01;;;;;;;4.40;2.93;;;8.20;99.90;;;;;;5132706;27;20298;-77
2023/04/15 13:31:55;;;;;;;5.53;2.70;;;8.00;99.90;;;;;;5071660;28;20598;-79
2023/04/15 13:38:30;;;;;;;3.13;2.40;;;8.00;99.90;;;;;;5133549;27;20772;-78
2023/04/15 13:42:32;;;;;;;2.90;2.00;;;8.40;99.90;;;;;;5034606;27;20290;-78
2023/04/15 13:46:03;;;;;;;4.07;2.33;;;8.50;99.90;;;;;;5137847;27;20751;-78
2023/04/15 13:48:29;;;;;;;2.90;2.23;;;8.60;99.90;;;;;;5118230;28;20260;-78
2023/04/15 13:50:54;;;;;;;5.07;2.30;;;8.60;99.90;;;;;;5118038;28;20515;-78
2023/04/15 13:53:20;;;;;;;4.40;2.47;;;8.80;99.90;;;;;;5136067;28;20584;-78
2023/04/15 13:56:42;;;;;;;5.07;2.77;;;8.80;99.90;;;;;;5132682;27;20632;-78
2023/04/15 14:04:35;;;;;;;5.10;2.77;;;8.60;99.90;;;;;;5134673;27;20285;-78
2023/04/15 14:41:40;;;;;;;6.33;5.10;;;6.90;99.90;;;;;;5132458;27;20745;-80
2023/04/15 14:48:37;;;;;;;8.73;7.20;;;7.10;99.90;;;;;;5136753;27;20286;-81
2023/04/15 14:53:58;;;;;;;5.90;5.33;;;7.00;99.90;;;;;;5135332;27;20656;-81
2023/04/15 14:58:27;;;;;;;6.00;5.10;;;7.20;99.90;;;;;;5135139;27;20263;-81
2023/04/15 15:03:27;;;;;;;8.63;4.90;;;;;;;;;;5134223;27;21403;-80
2023/04/15 15:09:03;;;;;;;4.20;3.63;;;7.20;99.90;;;;;;5134970;27;20608;-80
2023/04/15 15:15:06;;;;;;;6.67;4.13;;;7.80;99.90;;;;;;5134818;27;20637;-80
2023/04/15 15:20:55;;;;;;;4.40;3.30;;;7.50;99.90;;;;;;5133641;27;20270;-79
2023/04/15 15:26:18;;;;;;;6.50;3.90;;;7.40;99.90;;;;;;5134684;27;20757;-81
2023/04/15 15:32:09;;;;;;;9.37;3.83;;;7.40;99.90;;;;;;5134524;27;20268;-79
2023/04/15 15:39:23;;;;;;;6.83;3.87;;;7.80;99.90;;;;;;5134026;27;20279;-79
